Time;durP1;ratioP1;P1;durP2;ratioP2;P2;SDS_P1;SDS_P2;PMS_P1;PMS_P2;Temp;Humidity;BMP_temperature;BMP_pressure;BME280_temperature;BME280_humidity;BME280_pressure;Samples;Min_cycle;Max_cycle;Signal;HPM_P1;HPM_P2
2021/06/14 00:02:04;;;;;;;;;;;13.20;76.80;;;;;;5048148;28;19959;-66
2021/06/14 00:04:32;;;;;;;;;;;13.20;76.60;;;;;;5050143;28;19999;-65
2021/06/14 00:06:59;;;;;;;;;;;13.20;76.40;;;;;;5052498;28;19928;-66
2021/06/14 00:09:27;;;;;;;;;;;13.20;76.50;;;;;;5054386;28;19936;-66
2021/06/14 00:11:55;;;;;;;;;;;13.10;76.90;;;;;;5053225;28;20004;-67
2021/06/14 00:14:24;;;;;;;;;;;13.00;77.30;;;;;;5046627;28;19921;-67
2021/06/14 00:16:51;;;;;;;;;;;13.00;77.30;;;;;;5055639;28;19996;-65
2021/06/14 00:19:18;;;;;;;;;;;13.10;77.10;;;;;;5053624;28;19960;-67
2021/06/14 00:21:46;;;;;;;;;;;12.90;77.50;;;;;;5053355;28;19937;-65
2021/06/14 00:24:13;;;;;;;;;;;13.00;77.40;;;;;;5053618;28;19967;-67
2021/06/14 00:26:40;;;;;;;;;;;13.00;77.20;;;;;;5054345;28;19951;-66
2021/06/14 00:29:07;;;;;;;;;;;13.00;77.20;;;;;;5055436;28;19928;-65
2021/06/14 00:31:36;;;;;;;;;;;12.90;77.30;;;;;;5054556;28;20012;-66
2021/06/14 00:34:03;;;;;;;;;;;12.80;77.60;;;;;;5055590;28;20241;-66
2021/06/14 00:36:32;;;;;;;;;;;12.80;77.90;;;;;;5054482;28;20203;-65
2021/06/14 00:38:59;;;;;;;;;;;12.60;78.80;;;;;;5053977;28;19929;-66
2021/06/14 00:41:26;;;;;;;;;;;12.60;78.80;;;;;;5053673;28;19920;-66
2021/06/14 00:43:54;;;;;;;;;;;12.60;78.60;;;;;;5054501;28;19948;-66
2021/06/14 00:46:22;;;;;;;;;;;12.60;78.50;;;;;;5051995;28;20006;-66
2021/06/14 00:48:50;;;;;;;;;;;12.50;79.00;;;;;;5050050;28;19936;-66
2021/06/14 00:51:18;;;;;;;;;;;12.50;78.80;;;;;;5056076;28;20212;-66
2021/06/14 00:53:55;;;;;;;;;;;12.50;78.60;;;;;;5055397;28;20176;-65
2021/06/14 00:56:24;;;;;;;;;;;12.50;78.70;;;;;;5054046;28;20011;-66
2021/06/14 00:58:51;;;;;;;;;;;12.40;78.80;;;;;;5053947;28;20316;-65
2021/06/14 01:01:20;;;;;;;;;;;12.40;78.70;;;;;;5065035;28;19928;-65
2021/06/14 01:03:50;;;;;;;;;;;12.40;78.70;;;;;;5045867;28;19936;-66
2021/06/14 01:06:18;;;;;;;;;;;12.30;79.10;;;;;;5054957;28;19927;-65
2021/06/14 01:08:49;;;;;;;;;;;12.30;79.20;;;;;;5055160;28;20140;-65
2021/06/14 01:11:20;;;;;;;;;;;12.20;79.40;;;;;;5065214;28;19975;-66
2021/06/14 01:13:53;;;;;;;;;;;12.20;79.60;;;;;;5055419;28;20213;-64
2021/06/14 01:16:24;;;;;;;;;;;12.20;79.80;;;;;;5076517;28;20164;-65
2021/06/14 01:19:00;;;;;;;;;;;12.20;79.80;;;;;;5070488;28;19929;-65
2021/06/14 01:21:32;;;;;;;;;;;12.10;79.90;;;;;;5054424;28;20000;-65
2021/06/14 01:24:18;;;;;;;;;;;12.10;80.10;;;;;;5066612;28;19924;-65
2021/06/14 01:26:54;;;;;;;;;;;12.10;80.20;;;;;;5052887;28;20258;-65
2021/06/14 01:29:24;;;;;;;;;;;12.00;80.40;;;;;;5045145;28;19921;-66
2021/06/14 01:31:53;;;;;;;;;;;12.00;80.70;;;;;;5051202;28;20268;-66
2021/06/14 01:34:24;;;;;;;;;;;11.90;80.40;;;;;;5053208;28;19929;-65
2021/06/14 01:36:54;;;;;;;;;;;11.90;80.50;;;;;;5084404;28;19928;-65
2021/06/14 01:39:23;;;;;;;;;;;11.90;80.70;;;;;;5050771;28;19929;-66
2021/06/14 01:41:52;;;;;;;;;;;11.80;80.90;;;;;;5052892;28;20276;-65
2021/06/14 01:44:20;;;;;;;;;;;11.70;81.10;;;;;;5055178;28;19975;-66
2021/06/14 01:46:51;;;;;;;;;;;11.70;81.40;;;;;;5056316;28;19933;-66
2021/06/14 01:49:18;;;;;;;;;;;11.60;81.80;;;;;;5053572;28;19936;-66
2021/06/14 01:51:51;;;;;;;;;;;11.60;82.20;;;;;;5055546;28;19928;-65
2021/06/14 01:54:22;;;;;;;;;;;11.60;82.10;;;;;;5077714;28;19958;-64
2021/06/14 01:57:06;;;;;;;;;;;11.60;81.90;;;;;;5054898;28;20175;-64
2021/06/14 01:59:54;;;;;;;;;;;11.70;81.70;;;;;;5050845;28;19921;-65
2021/06/14 02:02:44;;;;;;;;;;;11.60;81.60;;;;;;5053651;28;20964;-66
2021/06/14 02:05:25;;;;;;;;;;;11.50;82.00;;;;;;5073965;28;19940;-65
2021/06/14 02:07:54;;;;;;;;;;;11.50;81.90;;;;;;5072653;28;20239;-65
2021/06/14 02:10:21;;;;;;;;;;;11.50;82.00;;;;;;5052677;28;20212;-66
2021/06/14 02:12:49;;;;;;;;;;;11.60;81.80;;;;;;5057279;28;20171;-66
2021/06/14 02:15:18;;;;;;;;;;;11.60;81.80;;;;;;5070254;28;19940;-66
2021/06/14 02:17:47;;;;;;;;;;;11.60;81.70;;;;;;5057443;28;19973;-66
2021/06/14 02:20:16;;;;;;;;;;;11.60;81.70;;;;;;5051886;28;19928;-66
2021/06/14 02:22:44;;;;;;;;;;;11.60;81.70;;;;;;5059244;28;19921;-66
2021/06/14 02:25:12;;;;;;;;;;;11.50;81.90;;;;;;5052889;28;20142;-67
2021/06/14 02:27:40;;;;;;;;;;;11.40;82.00;;;;;;5050752;28;19967;-66
2021/06/14 02:30:14;;;;;;;;;;;11.50;82.30;;;;;;5078096;28;19971;-66
2021/06/14 02:32:42;;;;;;;;;;;11.40;82.50;;;;;;5087293;28;20236;-66
2021/06/14 02:35:12;;;;;;;;;;;11.40;82.50;;;;;;5057013;28;19928;-65
2021/06/14 02:37:40;;;;;;;;;;;11.40;82.40;;;;;;5056275;28;19950;-65
2021/06/14 02:40:10;;;;;;;;;;;11.40;82.50;;;;;;5056493;28;19975;-66
2021/06/14 02:42:39;;;;;;;;;;;11.40;82.30;;;;;;5057586;28;20352;-66
2021/06/14 02:45:08;;;;;;;;;;;11.40;82.30;;;;;;5087413;28;19928;-64
2021/06/14 02:47:37;;;;;;;;;;;11.50;82.00;;;;;;5069089;28;20258;-66
2021/06/14 02:50:13;;;;;;;;;;;11.50;81.90;;;;;;5069261;28;19956;-66
2021/06/14 02:52:41;;;;;;;;;;;11.40;81.70;;;;;;5072096;28;19932;-66
2021/06/14 02:55:12;;;;;;;;;;;11.40;82.20;;;;;;5068192;28;19935;-65
2021/06/14 02:57:44;;;;;;;;;;;11.30;82.50;;;;;;5071476;28;19936;-65
2021/06/14 03:00:13;;;;;;;;;;;11.30;82.30;;;;;;5074313;28;19932;-65
2021/06/14 03:02:41;;;;;;;;;;;11.20;82.50;;;;;;5074713;28;20216;-65
2021/06/14 03:05:15;;;;;;;;;;;11.20;82.80;;;;;;5074978;28;19936;-66
2021/06/14 03:07:45;;;;;;;;;;;11.10;83.00;;;;;;5073896;28;19924;-66
2021/06/14 03:10:14;;;;;;;;;;;11.10;83.40;;;;;;5071991;28;20262;-67
2021/06/14 03:12:45;;;;;;;;;;;11.10;83.30;;;;;;5056428;28;19927;-65
2021/06/14 03:15:13;;;;;;;;;;;11.10;83.30;;;;;;5057561;28;19975;-65
2021/06/14 03:17:43;;;;;;;;;;;11.10;83.30;;;;;;5054284;28;20000;-65
2021/06/14 03:20:12;;;;;;;;;;;11.10;83.40;;;;;;5066704;28;19932;-65
2021/06/14 03:22:41;;;;;;;;;;;11.10;83.00;;;;;;5052860;28;19929;-66
2021/06/14 03:25:12;;;;;;;;;;;11.10;83.20;;;;;;5054187;28;19928;-66
2021/06/14 03:27:42;;;;;;;;;;;11.10;83.00;;;;;;5056136;28;19921;-64
2021/06/14 03:30:11;;;;;;;;;;;11.10;83.00;;;;;;5055816;28;19929;-65
2021/06/14 03:32:40;;;;;;;;;;;11.10;83.00;;;;;;5056088;28;20128;-66
2021/06/14 03:35:08;;;;;;;;;;;11.10;83.20;;;;;;5056234;28;20180;-66
2021/06/14 03:37:35;;;;;;;;;;;11.10;83.20;;;;;;5050078;28;20038;-65
2021/06/14 03:40:04;;;;;;;;;;;11.10;82.70;;;;;;5055002;28;19921;-66
2021/06/14 03:42:32;;;;;;;;;;;11.10;82.90;;;;;;5056135;28;19929;-66
2021/06/14 03:45:00;;;;;;;;;;;11.20;82.50;;;;;;5052300;28;19929;-66
2021/06/14 03:47:30;;;;;;;;;;;11.20;82.70;;;;;;5053025;28;19933;-66
2021/06/14 03:49:58;;;;;;;;;;;11.30;82.20;;;;;;5053363;28;19933;-65
2021/06/14 03:52:25;;;;;;;;;;;11.20;82.20;;;;;;5055880;28;19960;-66
2021/06/14 03:54:52;;;;;;;;;;;11.20;82.60;;;;;;5053704;28;19933;-65
2021/06/14 03:57:20;;;;;;;;;;;11.10;82.60;;;;;;5054001;28;20007;-66
2021/06/14 03:59:49;;;;;;;;;;;11.20;82.50;;;;;;5053383;28;19929;-65
2021/06/14 04:02:16;;;;;;;;;;;11.20;82.30;;;;;;5053136;28;19929;-66
2021/06/14 04:04:48;;;;;;;;;;;11.30;82.00;;;;;;5054987;28;20131;-66
2021/06/14 04:07:35;;;;;;;;;;;11.40;81.70;;;;;;5071091;28;19925;-65
2021/06/14 04:10:06;;;;;;;;;;;11.40;81.80;;;;;;5055950;28;19932;-65
2021/06/14 04:12:35;;;;;;;;;;;11.30;81.80;;;;;;5058405;28;19960;-66
2021/06/14 04:15:06;;;;;;;;;;;11.30;82.00;;;;;;5054912;28;19992;-65
2021/06/14 04:17:33;;;;;;;;;;;11.30;82.00;;;;;;5071379;28;20239;-65
2021/06/14 04:20:01;;;;;;;;;;;11.30;82.00;;;;;;5053507;28;19933;-66
2021/06/14 04:22:31;;;;;;;;;;;11.30;82.10;;;;;;5053754;28;20841;-67
2021/06/14 04:24:58;;;;;;;;;;;11.40;82.10;;;;;;5055511;28;20165;-65
2021/06/14 04:27:25;;;;;;;;;;;11.40;82.00;;;;;;5056827;28;19920;-66
2021/06/14 04:29:55;;;;;;;;;;;11.40;82.00;;;;;;5052237;28;19928;-65
2021/06/14 04:32:24;;;;;;;;;;;11.50;81.60;;;;;;5054939;28;19929;-64
2021/06/14 04:34:54;;;;;;;;;;;11.50;81.70;;;;;;5056143;28;20218;-66
2021/06/14 04:37:21;;;;;;;;;;;11.50;81.60;;;;;;5057671;28;20173;-66
2021/06/14 04:39:48;;;;;;;;;;;11.60;81.50;;;;;;5055416;28;19922;-66
2021/06/14 04:42:15;;;;;;;;;;;11.60;81.30;;;;;;5056924;28;19927;-65
2021/06/14 04:44:42;;;;;;;;;;;11.60;81.10;;;;;;5057145;28;19975;-67
2021/06/14 04:47:12;;;;;;;;;;;11.70;80.90;;;;;;5054332;28;20000;-65
2021/06/14 04:49:39;;;;;;;;;;;11.70;81.00;;;;;;5056324;28;20090;-66
2021/06/14 04:52:09;;;;;;;;;;;11.80;80.70;;;;;;5056181;28;19929;-66
2021/06/14 04:54:40;;;;;;;;;;;11.90;80.40;;;;;;5052167;28;19991;-65
2021/06/14 04:57:08;;;;;;;;;;;11.90;80.50;;;;;;5052707;28;19929;-66
2021/06/14 04:59:35;;;;;;;;;;;12.10;80.20;;;;;;5055864;28;19920;-65
2021/06/14 05:02:06;;;;;;;;;;;12.10;80.10;;;;;;5049049;28;20135;-66
2021/06/14 05:04:35;;;;;;;;;;;12.20;79.90;;;;;;5053743;28;19967;-65
2021/06/14 05:07:03;;;;;;;;;;;12.20;79.60;;;;;;5049675;28;19999;-65
2021/06/14 05:09:32;;;;;;;;;;;12.30;79.50;;;;;;5053568;28;19929;-65
2021/06/14 05:11:59;;;;;;;;;;;12.40;79.30;;;;;;5055819;28;19921;-65
2021/06/14 05:14:30;;;;;;;;;;;12.50;79.30;;;;;;5053139;28;19963;-66
2021/06/14 05:16:57;;;;;;;;;;;12.60;79.10;;;;;;5052284;28;19925;-65
2021/06/14 05:19:27;;;;;;;;;;;12.60;79.00;;;;;;5052820;28;19929;-65
2021/06/14 05:22:04;;;;;;;;;;;12.70;78.60;;;;;;5053289;28;19948;-66
2021/06/14 05:24:33;;;;;;;;;;;12.90;77.90;;;;;;5051841;28;20104;-65
2021/06/14 05:27:01;;;;;;;;;;;13.00;77.20;;;;;;5054261;28;20102;-66
2021/06/14 05:29:28;;;;;;;;;;;13.10;77.20;;;;;;5051920;28;19951;-65
2021/06/14 05:31:57;;;;;;;;;;;13.30;76.80;;;;;;5052700;28;19921;-66
2021/06/14 05:34:28;;;;;;;;;;;13.40;76.80;;;;;;5051775;28;20011;-65
2021/06/14 05:36:56;;;;;;;;;;;13.50;76.10;;;;;;5053949;28;20212;-66
2021/06/14 05:39:26;;;;;;;;;;;13.60;76.20;;;;;;5050798;28;20571;-66
2021/06/14 05:41:55;;;;;;;;;;;13.70;76.50;;;;;;5047400;28;20217;-65
2021/06/14 05:44:28;;;;;;;;;;;13.70;76.90;;;;;;5053054;28;19929;-66
2021/06/14 05:46:56;;;;;;;;;;;13.90;77.40;;;;;;5051370;28;19983;-65
2021/06/14 05:49:23;;;;;;;;;;;14.00;76.30;;;;;;5051641;28;19933;-66
2021/06/14 05:51:50;;;;;;;;;;;14.20;73.90;;;;;;5055302;28;19933;-66
2021/06/14 05:54:17;;;;;;;;;;;14.40;72.60;;;;;;5055368;28;19964;-67
2021/06/14 05:56:46;;;;;;;;;;;14.60;72.70;;;;;;5055595;28;19940;-66
2021/06/14 05:59:13;;;;;;;;;;;14.80;72.20;;;;;;5054172;28;19931;-66
2021/06/14 06:01:40;;;;;;;;;;;14.90;70.30;;;;;;5051574;28;20220;-64
2021/06/14 06:04:07;;;;;;;;;;;15.10;70.00;;;;;;5052664;28;19961;-65
2021/06/14 06:06:35;;;;;;;;;;;15.20;69.50;;;;;;5055670;28;19925;-65
2021/06/14 06:09:09;;;;;;;;;;;15.30;69.90;;;;;;5055085;28;19929;-65
2021/06/14 06:11:47;;;;;;;;;;;15.50;68.60;;;;;;5057723;28;19929;-66
2021/06/14 06:14:14;;;;;;;;;;;15.60;67.70;;;;;;5054938;28;19928;-65
2021/06/14 06:16:42;;;;;;;;;;;15.70;67.20;;;;;;5056729;28;19967;-66
2021/06/14 06:19:09;;;;;;;;;;;15.80;66.80;;;;;;5053931;28;19935;-65
2021/06/14 06:21:36;;;;;;;;;;;15.90;66.50;;;;;;5053347;28;20230;-66
2021/06/14 06:24:05;;;;;;;;;;;16.00;65.70;;;;;;5053424;28;19932;-65
2021/06/14 06:26:32;;;;;;;;;;;16.10;65.20;;;;;;5049580;28;20003;-64
2021/06/14 06:29:02;;;;;;;;;;;16.30;63.80;;;;;;5052673;28;19951;-66
2021/06/14 06:31:32;;;;;;;;;;;16.40;63.10;;;;;;5055195;28;19929;-66
2021/06/14 06:34:00;;;;;;;;;;;16.40;63.50;;;;;;5054246;28;19935;-65
2021/06/14 06:36:29;;;;;;;;;;;16.60;63.30;;;;;;5056454;28;20172;-64
2021/06/14 06:38:58;;;;;;;;;;;16.70;63.40;;;;;;5053702;28;20010;-66
2021/06/14 06:41:25;;;;;;;;;;;16.80;62.80;;;;;;5054383;28;19929;-65
2021/06/14 06:43:52;;;;;;;;;;;16.90;63.10;;;;;;5055105;28;19929;-66
2021/06/14 06:46:21;;;;;;;;;;;17.10;62.40;;;;;;5056314;28;19960;-65
2021/06/14 06:48:48;;;;;;;;;;;17.20;62.50;;;;;;5055194;28;20106;-65
2021/06/14 06:51:16;;;;;;;;;;;17.30;62.50;;;;;;5085991;28;19960;-65
2021/06/14 06:53:44;;;;;;;;;;;17.40;61.00;;;;;;5054766;28;22291;-66
2021/06/14 06:56:12;;;;;;;;;;;17.50;60.30;;;;;;5056828;28;20189;-65
2021/06/14 06:58:39;;;;;;;;;;;17.60;59.80;;;;;;5052249;28;19974;-66
2021/06/14 07:01:07;;;;;;;;;;;17.70;59.70;;;;;;5051340;28;20175;-66
2021/06/14 07:03:36;;;;;;;;;;;17.90;59.30;;;;;;5055785;28;20141;-66
2021/06/14 07:06:04;;;;;;;;;;;18.10;58.30;;;;;;5056606;28;20247;-65
2021/06/14 07:08:32;;;;;;;;;;;18.20;57.60;;;;;;5071139;28;19929;-66
2021/06/14 07:11:02;;;;;;;;;;;18.20;57.50;;;;;;5054655;28;19936;-66
2021/06/14 07:13:39;;;;;;;;;;;18.10;56.90;;;;;;5049213;28;19936;-67
2021/06/14 07:16:09;;;;;;;;;;;18.20;55.40;;;;;;5054272;28;20223;-66
2021/06/14 07:18:40;;;;;;;;;;;18.30;56.70;;;;;;5070719;28;19929;-66
2021/06/14 07:21:10;;;;;;;;;;;18.30;55.50;;;;;;5050660;28;19929;-65
2021/06/14 07:23:39;;;;;;;;;;;18.50;57.00;;;;;;5053302;28;19935;-67
2021/06/14 07:26:06;;;;;;;;;;;18.60;55.80;;;;;;5052429;28;19929;-65
2021/06/14 07:28:37;;;;;;;;;;;18.70;56.10;;;;;;5054757;28;19929;-66
2021/06/14 07:31:05;;;;;;;;;;;19.00;55.70;;;;;;5052898;28;19932;-65
2021/06/14 07:33:35;;;;;;;;;;;19.00;53.20;;;;;;5054119;28;19929;-66
2021/06/14 07:36:08;;;;;;;;;;;19.00;52.90;;;;;;5052533;28;19993;-65
2021/06/14 07:38:36;;;;;;;;;;;19.10;53.90;;;;;;5068921;28;20004;-66
2021/06/14 07:41:05;;;;;;;;;;;19.20;53.50;;;;;;5054326;28;20086;-66
2021/06/14 07:43:32;;;;;;;;;;;19.30;53.10;;;;;;5055518;28;20023;-65
2021/06/14 07:46:01;;;;;;;;;;;19.40;52.00;;;;;;5053759;28;19929;-66
2021/06/14 07:48:31;;;;;;;;;;;19.30;51.40;;;;;;5055539;28;20092;-64
2021/06/14 07:50:59;;;;;;;;;;;19.50;53.40;;;;;;5052932;28;19975;-66
2021/06/14 07:53:28;;;;;;;;;;;19.70;52.40;;;;;;5057138;28;19929;-65
2021/06/14 07:55:56;;;;;;;;;;;19.90;51.60;;;;;;5055556;28;20159;-66
2021/06/14 07:58:25;;;;;;;;;;;19.80;49.80;;;;;;5052319;28;20161;-65
2021/06/14 08:00:53;;;;;;;;;;;19.80;50.70;;;;;;5045098;28;20039;-67
2021/06/14 08:03:23;;;;;;;;;;;20.00;51.40;;;;;;5053394;28;19974;-66
2021/06/14 08:05:51;;;;;;;;;;;20.10;50.00;;;;;;5048988;28;19921;-67
2021/06/14 08:08:21;;;;;;;;;;;20.20;49.80;;;;;;5049926;28;19971;-66
2021/06/14 08:10:50;;;;;;;;;;;20.50;50.80;;;;;;5054436;28;20093;-68
2021/06/14 08:13:19;;;;;;;;;;;20.70;50.60;;;;;;5054079;28;20147;-65
2021/06/14 08:15:46;;;;;;;;;;;20.80;49.00;;;;;;5054435;28;19928;-66
2021/06/14 08:18:25;;;;;;;;;;;20.80;48.70;;;;;;5055262;28;20147;-66
2021/06/14 08:21:05;;;;;;;;;;;20.90;48.70;;;;;;5068690;28;19928;-66
2021/06/14 08:26:21;;;;;;;;;;;21.10;48.20;;;;;;5051495;28;19941;-65
2021/06/14 08:28:49;;;;;;;;;;;21.10;48.00;;;;;;5055967;28;19966;-67
2021/06/14 08:31:16;;;;;;;;;;;21.00;47.80;;;;;;5053011;28;20391;-66
2021/06/14 08:33:43;;;;;;;;;;;21.10;48.90;;;;;;5051698;28;19929;-67
2021/06/14 08:36:10;;;;;;;;;;;21.30;47.80;;;;;;5075367;28;20431;-66
2021/06/14 08:38:37;;;;;;;;;;;21.40;47.20;;;;;;5053080;28;20232;-67
2021/06/14 08:41:05;;;;;;;;;;;21.40;47.40;;;;;;5050695;28;19995;-65
2021/06/14 08:43:35;;;;;;;;;;;21.50;47.30;;;;;;5050370;28;19929;-66
2021/06/14 08:46:04;;;;;;;;;;;21.40;47.00;;;;;;5052995;28;19995;-66
2021/06/14 08:48:32;;;;;;;;;;;21.20;45.20;;;;;;5052372;28;20208;-65
2021/06/14 08:50:59;;;;;;;;;;;21.10;45.40;;;;;;5051240;28;19936;-65
2021/06/14 08:53:27;;;;;;;;;;;21.10;46.50;;;;;;5049597;28;19929;-65
2021/06/14 08:55:55;;;;;;;;;;;21.40;47.50;;;;;;5052146;28;21177;-66
2021/06/14 08:58:23;;;;;;;;;;;21.70;48.10;;;;;;5052007;28;20116;-66
2021/06/14 09:00:51;;;;;;;;;;;22.10;47.20;;;;;;5051391;28;20108;-66
2021/06/14 09:03:22;;;;;;;;;;;22.20;46.40;;;;;;5051752;28;19921;-67
2021/06/14 09:05:50;;;;;;;;;;;22.30;46.30;;;;;;5044705;28;19932;-66
2021/06/14 09:08:22;;;;;;;;;;;22.50;45.60;;;;;;5053831;28;20127;-66
2021/06/14 09:10:52;;;;;;;;;;;22.50;44.00;;;;;;5055556;28;19960;-65
2021/06/14 09:13:20;;;;;;;;;;;22.00;43.90;;;;;;5049884;28;19992;-66
2021/06/14 09:15:49;;;;;;;;;;;22.00;44.50;;;;;;5089177;28;19928;-65
2021/06/14 09:18:20;;;;;;;;;;;22.10;45.60;;;;;;5053747;28;19964;-66
2021/06/14 09:20:55;;;;;;;;;;;22.20;44.50;;;;;;5048581;28;20158;-65
2021/06/14 09:23:22;;;;;;;;;;;22.30;45.50;;;;;;5052453;28;20213;-65
2021/06/14 09:25:50;;;;;;;;;;;22.30;44.80;;;;;;5055272;28;19940;-66
2021/06/14 09:28:17;;;;;;;;;;;22.60;45.40;;;;;;5055380;28;19929;-66
2021/06/14 09:30:45;;;;;;;;;;;22.60;44.20;;;;;;5053795;28;20291;-66
2021/06/14 09:33:26;;;;;;;;;;;22.60;44.70;;;;;;5055213;28;19921;-66
2021/06/14 09:35:54;;;;;;;;;;;22.80;44.90;;;;;;5058415;28;19955;-66
2021/06/14 09:38:23;;;;;;;;;;;22.90;44.10;;;;;;5055077;28;19927;-66
2021/06/14 09:40:51;;;;;;;;;;;23.00;44.60;;;;;;5054134;28;20361;-66
2021/06/14 09:43:24;;;;;;;;;;;23.10;42.90;;;;;;5057341;28;19936;-66
2021/06/14 09:45:52;;;;;;;;;;;23.10;42.50;;;;;;5056674;28;19929;-65
2021/06/14 09:48:21;;;;;;;;;;;22.90;43.50;;;;;;5054956;28;20007;-67
2021/06/14 09:50:50;;;;;;;;;;;22.80;42.90;;;;;;5058874;28;20253;-66
2021/06/14 09:53:18;;;;;;;;;;;22.80;43.20;;;;;;5052252;28;19921;-66
2021/06/14 09:55:46;;;;;;;;;;;22.90;42.80;;;;;;5054567;28;19927;-65
2021/06/14 09:58:16;;;;;;;;;;;23.00;42.80;;;;;;5055598;28;19955;-65
2021/06/14 10:00:48;;;;;;;;;;;23.20;41.60;;;;;;5082921;28;19928;-66
2021/06/14 10:03:16;;;;;;;;;;;23.40;41.50;;;;;;5054572;28;19925;-66
2021/06/14 10:05:49;;;;;;;;;;;23.70;41.20;;;;;;5058524;28;19924;-66
2021/06/14 10:08:25;;;;;;;;;;;23.70;40.90;;;;;;5051963;28;19929;-66
2021/06/14 10:11:07;;;;;;;;;;;24.00;40.00;;;;;;5056267;28;19963;-65
2021/06/14 10:13:37;;;;;;;;;;;24.50;40.60;;;;;;5055759;28;19930;-66
2021/06/14 10:16:10;;;;;;;;;;;24.90;40.20;;;;;;5058821;28;20031;-64
2021/06/14 10:18:39;;;;;;;;;;;25.40;37.30;;;;;;5057578;28;19921;-65
2021/06/14 10:21:08;;;;;;;;;;;25.30;37.10;;;;;;5055891;28;19975;-65
2021/06/14 10:23:37;;;;;;;;;;;25.30;38.20;;;;;;5053132;28;19928;-66
2021/06/14 10:26:05;;;;;;;;;;;26.00;34.50;;;;;;5058374;28;20209;-66
2021/06/14 10:28:40;;;;;;;;;;;26.50;35.50;;;;;;5054203;28;19998;-66
2021/06/14 10:31:09;;;;;;;;;;;27.20;35.50;;;;;;5054240;28;20171;-65
2021/06/14 10:33:37;;;;;;;;;;;27.90;34.10;;;;;;5057119;28;19929;-66
2021/06/14 10:36:06;;;;;;;;;;;28.00;33.20;;;;;;5058229;28;20006;-66
2021/06/14 10:38:34;;;;;;;;;;;28.80;33.60;;;;;;5056230;28;20582;-65
2021/06/14 10:41:07;;;;;;;;;;;29.70;30.70;;;;;;5055104;28;19929;-66
2021/06/14 10:43:39;;;;;;;;;;;30.50;28.90;;;;;;5055135;28;20102;-67
2021/06/14 10:46:09;;;;;;;;;;;31.10;28.10;;;;;;5055091;28;20115;-67
2021/06/14 10:48:37;;;;;;;;;;;32.50;26.50;;;;;;5051038;28;20216;-66
2021/06/14 10:51:11;;;;;;;;;;;33.00;26.50;;;;;;5061538;28;19959;-65
2021/06/14 10:53:38;;;;;;;;;;;33.00;24.30;;;;;;5057549;28;20144;-66
2021/06/14 10:56:14;;;;;;;;;;;33.10;25.70;;;;;;5058120;28;20116;-66
2021/06/14 10:58:45;;;;;;;;;;;33.60;24.30;;;;;;5056835;28;19920;-67
2021/06/14 11:01:16;;;;;;;;;;;34.00;25.90;;;;;;5050018;28;19967;-66
2021/06/14 11:03:47;;;;;;;;;;;34.90;22.90;;;;;;5054508;28;20213;-67
2021/06/14 11:06:20;;;;;;;;;;;33.50;23.20;;;;;;5065571;28;19929;-66
2021/06/14 11:08:58;;;;;;;;;;;32.70;24.60;;;;;;5051879;28;19927;-66
2021/06/14 11:11:27;;;;;;;;;;;34.40;23.60;;;;;;5055155;28;20003;-67
2021/06/14 11:13:55;;;;;;;;;;;34.50;22.90;;;;;;5057983;28;20208;-66
2021/06/14 11:16:23;;;;;;;;;;;35.90;22.10;;;;;;5071076;28;19952;-66
2021/06/14 11:19:02;;;;;;;;;;;37.10;21.50;;;;;;5059540;28;19956;-66
2021/06/14 11:21:30;;;;;;;;;;;37.50;19.90;;;;;;5070204;28;19967;-67
2021/06/14 11:24:05;;;;;;;;;;;37.60;20.70;;;;;;5057312;28;20093;-68
2021/06/14 11:26:39;;;;;;;;;;;38.40;20.50;;;;;;5089441;28;19990;-66
2021/06/14 11:29:14;;;;;;;;;;;38.50;20.10;;;;;;5050982;28;20334;-66
2021/06/14 11:31:55;;;;;;;;;;;36.20;21.70;;;;;;5070758;28;19924;-67
2021/06/14 11:34:22;;;;;;;;;;;37.30;20.50;;;;;;5092286;28;19928;-66
2021/06/14 11:36:55;;;;;;;;;;;38.70;18.90;;;;;;5059372;28;19991;-66
2021/06/14 11:39:24;;;;;;;;;;;36.50;19.80;;;;;;5060609;28;19936;-66
2021/06/14 11:41:56;;;;;;;;;;;37.90;20.10;;;;;;5050864;28;20035;-67
2021/06/14 11:44:29;;;;;;;;;;;38.40;18.90;;;;;;5058346;28;19921;-66
2021/06/14 11:46:58;;;;;;;;;;;37.80;19.00;;;;;;5058644;28;19933;-66
2021/06/14 11:49:35;;;;;;;;;;;37.70;18.30;;;;;;5058959;28;20151;-66
2021/06/14 11:52:15;;;;;;;;;;;39.40;17.10;;;;;;5060201;28;19975;-67
2021/06/14 11:54:42;;;;;;;;;;;39.10;17.60;;;;;;5059077;28;19929;-67
2021/06/14 11:57:11;;;;;;;;;;;39.00;17.60;;;;;;5057830;28;19944;-66
2021/06/14 11:59:39;;;;;;;;;;;40.80;16.50;;;;;;5061808;28;19920;-67
2021/06/14 12:02:18;;;;;;;;;;;40.50;17.40;;;;;;5053251;28;19921;-67
2021/06/14 12:04:46;;;;;;;;;;;40.20;18.10;;;;;;5055839;28;20180;-66
2021/06/14 12:07:13;;;;;;;;;;;41.20;15.80;;;;;;5050964;28;20204;-67
2021/06/14 12:09:41;;;;;;;;;;;41.50;16.30;;;;;;5055368;28;19964;-67
2021/06/14 12:12:09;;;;;;;;;;;39.20;17.20;;;;;;5057555;28;19929;-68
2021/06/14 12:14:37;;;;;;;;;;;39.80;16.90;;;;;;5061324;28;19929;-66
2021/06/14 12:17:06;;;;;;;;;;;41.70;16.40;;;;;;5055804;28;19928;-67
2021/06/14 12:19:35;;;;;;;;;;;42.30;15.90;;;;;;5060093;28;19993;-66
2021/06/14 12:22:05;;;;;;;;;;;42.10;15.20;;;;;;5057538;28;19982;-67
2021/06/14 12:24:33;;;;;;;;;;;41.50;16.10;;;;;;5053285;28;19991;-66
2021/06/14 12:27:04;;;;;;;;;;;40.80;16.70;;;;;;5054524;28;20097;-67
2021/06/14 12:29:31;;;;;;;;;;;41.30;16.30;;;;;;5055903;28;19952;-66
2021/06/14 12:32:05;;;;;;;;;;;41.90;17.00;;;;;;5057231;28;19959;-68
2021/06/14 12:34:33;;;;;;;;;;;41.30;15.50;;;;;;5058933;28;19927;-68
2021/06/14 12:37:01;;;;;;;;;;;41.70;15.80;;;;;;5060968;28;20004;-68
2021/06/14 12:39:30;;;;;;;;;;;42.10;15.70;;;;;;5054669;28;19948;-67
2021/06/14 12:41:57;;;;;;;;;;;42.80;15.30;;;;;;5054138;28;19936;-66
2021/06/14 12:44:25;;;;;;;;;;;42.60;15.40;;;;;;5053068;28;19929;-66
2021/06/14 12:46:53;;;;;;;;;;;42.20;15.20;;;;;;5049564;28;20011;-67
2021/06/14 12:49:28;;;;;;;;;;;41.50;16.60;;;;;;5056678;28;19967;-68
2021/06/14 12:51:58;;;;;;;;;;;42.70;15.30;;;;;;5057925;28;19993;-67
2021/06/14 12:54:26;;;;;;;;;;;43.10;15.40;;;;;;5054211;28;19928;-67
2021/06/14 12:56:56;;;;;;;;;;;43.00;15.30;;;;;;5060164;28;19929;-66
2021/06/14 12:59:27;;;;;;;;;;;42.80;14.90;;;;;;5056221;28;19928;-68
2021/06/14 13:01:54;;;;;;;;;;;42.10;16.40;;;;;;5051280;28;20128;-68
2021/06/14 13:04:23;;;;;;;;;;;42.60;15.70;;;;;;5058137;28;19921;-67
2021/06/14 13:06:51;;;;;;;;;;;42.10;15.50;;;;;;5055558;28;20398;-68
2021/06/14 13:09:19;;;;;;;;;;;40.70;16.90;;;;;;5058056;28;21296;-67
2021/06/14 13:11:48;;;;;;;;;;;42.50;15.80;;;;;;5059321;28;19924;-67
2021/06/14 13:14:26;;;;;;;;;;;43.50;14.80;;;;;;5057300;28;20036;-69
2021/06/14 13:16:56;;;;;;;;;;;44.00;15.00;;;;;;5060967;28;19932;-67
2021/06/14 13:19:24;;;;;;;;;;;43.40;15.50;;;;;;5058906;28;19967;-68
2021/06/14 13:21:52;;;;;;;;;;;43.20;15.30;;;;;;5056536;28;19929;-67
2021/06/14 13:24:20;;;;;;;;;;;43.50;15.20;;;;;;5052084;28;19933;-67
2021/06/14 13:26:48;;;;;;;;;;;43.00;15.20;;;;;;5057690;28;19969;-67
2021/06/14 13:29:16;;;;;;;;;;;43.40;14.80;;;;;;5060861;28;19940;-68
2021/06/14 13:31:46;;;;;;;;;;;42.90;15.60;;;;;;5052435;28;19943;-67
2021/06/14 13:34:24;;;;;;;;;;;42.30;15.20;;;;;;5058520;28;19939;-66
2021/06/14 13:36:55;;;;;;;;;;;42.50;15.90;;;;;;5065021;28;19946;-67
2021/06/14 13:39:26;;;;;;;;;;;43.10;15.20;;;;;;5063254;28;19925;-66
2021/06/14 13:42:04;;;;;;;;;;;44.00;15.10;;;;;;5061817;28;19929;-66
2021/06/14 13:44:35;;;;;;;;;;;43.90;14.20;;;;;;5060619;28;19929;-67
2021/06/14 13:47:07;;;;;;;;;;;41.60;16.40;;;;;;5058858;28;20375;-67
2021/06/14 13:49:35;;;;;;;;;;;42.70;15.30;;;;;;5063485;28;19921;-67
2021/06/14 13:52:05;;;;;;;;;;;42.80;14.80;;;;;;5078098;28;19920;-67
2021/06/14 13:54:33;;;;;;;;;;;41.90;16.00;;;;;;5063410;28;20268;-66
2021/06/14 13:57:02;;;;;;;;;;;42.20;16.00;;;;;;5060485;28;19921;-67
2021/06/14 13:59:30;;;;;;;;;;;43.00;15.40;;;;;;5065086;28;20216;-67
2021/06/14 14:01:58;;;;;;;;;;;43.40;15.00;;;;;;5058532;28;19945;-67
2021/06/14 14:04:26;;;;;;;;;;;44.00;14.50;;;;;;5060734;28;20200;-67
2021/06/14 14:06:54;;;;;;;;;;;43.50;14.70;;;;;;5059568;28;19970;-69
2021/06/14 14:09:26;;;;;;;;;;;42.40;15.50;;;;;;5060573;28;20231;-68
2021/06/14 14:11:54;;;;;;;;;;;42.50;15.90;;;;;;5056237;28;19936;-67
2021/06/14 14:14:22;;;;;;;;;;;43.00;15.20;;;;;;5060895;28;19929;-67
2021/06/14 14:16:51;;;;;;;;;;;43.70;15.10;;;;;;5080012;28;19925;-66
2021/06/14 14:19:19;;;;;;;;;;;43.20;14.60;;;;;;5061311;28;19929;-66
2021/06/14 14:21:48;;;;;;;;;;;42.30;15.80;;;;;;5077678;28;19920;-69
2021/06/14 14:24:17;;;;;;;;;;;43.50;14.70;;;;;;5076284;28;19929;-66
2021/06/14 14:26:47;;;;;;;;;;;43.50;15.30;;;;;;5058309;28;20004;-67
2021/06/14 14:29:15;;;;;;;;;;;44.20;15.10;;;;;;5060283;28;19921;-67
2021/06/14 14:31:44;;;;;;;;;;;44.50;14.40;;;;;;5062476;28;19929;-67
2021/06/14 14:34:12;;;;;;;;;;;43.80;15.10;;;;;;5059269;28;20120;-68